Αρχική σελίδα
METAR-TAF:

METAR-TAF

Αεροδρόμια :

Γιακούτσκ, Ρωσία

γεωγραφικό πλάτος: 62-01N, γεωγραφικό μήκος: 129-43E, υψόμετρο: 103 μ

Παρών καιρός

Η αναφορά έγινε 23 λεπτά πριν, στις 23:30 UTC
Άνεμος 4 kt από Β
Θερμοκρασία 1°C
Υγρασία 55%
Πίεση 1027 hPa
Ορατότητα 10 χλμ και άνω
Δεν υπάρχουν νέφη με βάση κάτω από τα 1500 μ. και δεν υπάρχουν νέφη σωρειτομελανίτες.

METAR: UEEE 182330Z 01002MPS CAVOK 01/M07 Q1027 R23/09//60 NOSIG RMK QFE761

Χρόνος: 08:53 (23:53 UTC)

Πρόγνωση Καιρού

Η αναφορά έγινε 53 λεπτά πριν, στις 23:00 UTC
Η πρόγνωση ισχύει από τις 19 στις 00 UTC έως τις 20 στις 06 UTC
Άνεμος 6 kt από BA με ριπές μέχρι 16 kt
Ορατότητα 10 χλμ και άνω
Δεν υπάρχουν νέφη με βάση κάτω από τα 1500 μ. και δεν υπάρχουν νέφη σωρειτομελανίτες.

TAF: UEEE 182300Z 1900/2006 04003G08MPS CAVOK

Μετεωρολογικές αναφορές και προγνώσεις για περισσότερα από 4000 αεροδρόμια (δελτία METAR και TAF).

Οι διαθέσιμοι σταθμοί απεικονίζονται στο χάρτη με κίτρινες και κόκκινες κουκκίδες.

Μετακινήστε το ποντίκι πάνω από τις κουκκίδες για να δείτε το όνομα του σταθμού.

Στη συνέχεια, κάντε κλικ για να δείτε τις μετεωρολογικές αναφορές και τις προγνώσεις καιρού.

Για να αλλάξετε το χάρτη: κάντε κλικ στα πράσινα κουμπιά με τον μαύρο σταυρό για να ζουμάρετε, στο πράσινο κουμπί με την παύλα για να αφαιρέσετε το ζουμ ή στα πράσινα βέλη για να αντιπαραβάλλετε χάρτες.


METAR-TAF: